Time;durP1;ratioP1;P1;durP2;ratioP2;P2;SDS_P1;SDS_P2;PMS_P1;PMS_P2;Temp;Humidity;BMP_temperature;BMP_pressure;BME280_temperature;BME280_humidity;BME280_pressure;Samples;Min_cycle;Max_cycle;Signal;HPM_P1;HPM_P2
2021/05/19 00:02:18;;;;;;;8.90;8.10;;;9.40;99.90;;;;;;5075474;28;20672;-81
2021/05/19 00:04:46;;;;;;;9.05;8.25;;;9.40;99.90;;;;;;5071567;28;20630;-81
2021/05/19 00:07:13;;;;;;;9.50;8.50;;;9.20;99.90;;;;;;5066941;28;20206;-81
2021/05/19 00:09:39;;;;;;;8.88;8.07;;;9.30;99.90;;;;;;5073708;28;20202;-80
2021/05/19 00:12:07;;;;;;;10.75;8.85;;;9.30;99.90;;;;;;5064353;28;20211;-80
2021/05/19 00:14:34;;;;;;;8.05;7.25;;;9.20;99.90;;;;;;5070776;28;20222;-81
2021/05/19 00:17:01;;;;;;;9.73;8.25;;;9.10;99.90;;;;;;5069203;28;20201;-81
2021/05/19 00:19:27;;;;;;;8.77;7.97;;;9.10;99.90;;;;;;5064548;28;20270;-81
2021/05/19 00:21:55;;;;;;;13.35;8.80;;;9.00;99.90;;;;;;5061284;28;20194;-81
2021/05/19 00:24:22;;;;;;;8.07;7.32;;;9.00;99.90;;;;;;5063911;28;20219;-78
2021/05/19 00:26:48;;;;;;;9.90;8.45;;;9.00;99.90;;;;;;5078596;28;20290;-79
2021/05/19 00:29:15;;;;;;;11.85;8.10;;;9.10;99.90;;;;;;5077543;28;20198;-79
2021/05/19 00:31:43;;;;;;;8.70;7.90;;;9.10;99.90;;;;;;5045102;28;20331;-79
2021/05/19 00:34:10;;;;;;;8.85;7.95;;;9.20;99.90;;;;;;5066844;28;20249;-79
2021/05/19 00:36:38;;;;;;;7.78;6.97;;;9.20;99.90;;;;;;5071545;28;20257;-80
2021/05/19 00:39:07;;;;;;;7.75;7.05;;;9.20;99.90;;;;;;5071841;28;20278;-80
2021/05/19 00:41:35;;;;;;;9.07;8.18;;;9.30;99.90;;;;;;5077417;28;20189;-80
2021/05/19 00:44:06;;;;;;;10.73;9.65;;;9.30;99.90;;;;;;5074032;28;20214;-80
2021/05/19 00:46:33;;;;;;;9.63;8.48;;;9.30;99.90;;;;;;5069966;28;20556;-80
2021/05/19 00:49:00;;;;;;;9.43;8.63;;;9.20;99.90;;;;;;5052903;28;20203;-80
2021/05/19 00:51:28;;;;;;;8.40;7.60;;;9.20;99.90;;;;;;5057483;28;20234;-80
2021/05/19 00:53:56;;;;;;;9.30;8.27;;;9.30;99.90;;;;;;5073780;28;20542;-81
2021/05/19 00:56:23;;;;;;;10.25;7.93;;;9.40;99.90;;;;;;5062457;28;20205;-80
2021/05/19 00:58:59;;;;;;;9.80;8.80;;;9.40;99.90;;;;;;5055415;28;20640;-81
2021/05/19 01:01:26;;;;;;;9.95;9.05;;;9.40;99.90;;;;;;5068891;28;20557;-79
2021/05/19 01:04:05;;;;;;;9.63;8.32;;;9.40;99.90;;;;;;5057084;28;20246;-79
2021/05/19 01:06:46;;;;;;;8.15;7.45;;;9.40;99.90;;;;;;5051209;28;20218;-80
2021/05/19 01:11:59;;;;;;;8.10;7.38;;;9.30;99.90;;;;;;5070179;28;20243;-79
2021/05/19 01:14:27;;;;;;;9.10;8.30;;;9.10;99.90;;;;;;5065827;28;20576;-79
2021/05/19 01:16:54;;;;;;;9.45;8.60;;;9.10;99.90;;;;;;5058081;28;20195;-79
2021/05/19 01:19:23;;;;;;;9.73;8.52;;;9.10;99.90;;;;;;5072981;28;20214;-79
2021/05/19 01:21:55;;;;;;;10.20;9.25;;;9.20;99.90;;;;;;5074136;28;20248;-80
2021/05/19 01:24:22;;;;;;;9.32;8.15;;;9.20;99.90;;;;;;5075970;28;20222;-79
2021/05/19 01:26:50;;;;;;;9.77;8.77;;;9.20;99.90;;;;;;5074399;28;20232;-79
2021/05/19 01:29:17;;;;;;;8.95;8.15;;;9.20;99.90;;;;;;5069859;28;20226;-79
2021/05/19 01:31:48;;;;;;;9.85;8.32;;;9.30;99.90;;;;;;5048747;28;20225;-79
2021/05/19 01:34:15;;;;;;;8.85;7.90;;;9.50;99.90;;;;;;5079075;28;20249;-79
2021/05/19 01:36:42;;;;;;;11.57;8.60;;;9.70;99.90;;;;;;5065677;28;20259;-80
2021/05/19 01:39:09;;;;;;;8.88;8.07;;;9.80;99.90;;;;;;5058238;28;20694;-79
2021/05/19 01:41:37;;;;;;;9.05;8.25;;;9.70;99.90;;;;;;5076995;28;20203;-79
2021/05/19 01:44:11;;;;;;;13.75;9.35;;;9.80;99.90;;;;;;5060054;28;20229;-79
2021/05/19 01:47:08;;;;;;;8.80;7.88;;;9.90;99.90;;;;;;5055396;28;20281;-80
2021/05/19 01:49:39;;;;;;;8.07;7.38;;;10.00;99.90;;;;;;5059258;28;20210;-80
2021/05/19 01:52:08;;;;;;;9.15;8.25;;;10.00;99.90;;;;;;5071784;28;20221;-80
2021/05/19 01:54:38;;;;;;;8.65;7.85;;;10.10;99.90;;;;;;5059455;28;20238;-80
2021/05/19 01:57:08;;;;;;;8.10;7.35;;;10.10;99.90;;;;;;5054754;28;20237;-80
2021/05/19 01:59:36;;;;;;;7.10;6.50;;;10.20;99.90;;;;;;5071402;28;20221;-81
2021/05/19 02:02:04;;;;;;;7.95;7.18;;;10.30;99.90;;;;;;5046204;28;20206;-81
2021/05/19 02:04:33;;;;;;;8.10;6.82;;;10.20;99.90;;;;;;5060848;28;20650;-81
2021/05/19 02:07:02;;;;;;;8.43;7.63;;;10.10;99.90;;;;;;5079360;28;20203;-80
2021/05/19 02:09:39;;;;;;;8.25;7.45;;;9.90;99.90;;;;;;5056071;28;20210;-81
2021/05/19 02:12:11;;;;;;;8.38;7.68;;;9.70;99.90;;;;;;5058471;28;20211;-80
2021/05/19 02:14:38;;;;;;;8.52;7.70;;;9.60;99.90;;;;;;5063409;28;20237;-80
2021/05/19 02:17:06;;;;;;;8.82;8.02;;;9.50;99.90;;;;;;5071376;28;20290;-80
2021/05/19 02:19:33;;;;;;;9.60;8.70;;;9.50;99.90;;;;;;5070285;28;20203;-80
2021/05/19 02:22:03;;;;;;;9.57;8.63;;;9.50;99.90;;;;;;5066831;28;20184;-80
2021/05/19 02:24:40;;;;;;;8.20;7.50;;;9.50;99.90;;;;;;5060502;28;20229;-81
2021/05/19 02:27:08;;;;;;;9.20;8.30;;;9.50;99.90;;;;;;5064202;28;20208;-79
2021/05/19 02:29:38;;;;;;;10.18;9.18;;;9.70;99.90;;;;;;5056295;28;20198;-80
2021/05/19 02:32:05;;;;;;;8.70;7.65;;;9.70;99.90;;;;;;5065780;28;20215;-80
2021/05/19 02:34:32;;;;;;;10.23;9.32;;;9.80;99.90;;;;;;5059411;28;20219;-81
2021/05/19 02:37:01;;;;;;;9.18;8.35;;;9.90;99.90;;;;;;5077992;28;20226;-81
2021/05/19 02:39:27;;;;;;;9.30;8.40;;;9.70;99.90;;;;;;5076617;28;20197;-80
2021/05/19 02:41:58;;;;;;;8.27;7.57;;;9.70;99.90;;;;;;5080103;28;20198;-80
2021/05/19 02:44:25;;;;;;;9.52;8.63;;;9.60;99.90;;;;;;5077036;28;20238;-80
2021/05/19 02:46:53;;;;;;;9.60;8.63;;;9.70;99.90;;;;;;5080536;28;20195;-80
2021/05/19 02:49:20;;;;;;;9.65;8.75;;;9.90;99.90;;;;;;5049805;28;20293;-80
2021/05/19 02:51:49;;;;;;;9.57;8.73;;;9.90;99.90;;;;;;5076472;28;20572;-81
2021/05/19 02:54:16;;;;;;;9.88;8.80;;;9.90;99.90;;;;;;5061548;28;20225;-80
2021/05/19 02:56:43;;;;;;;10.20;9.20;;;9.90;99.90;;;;;;5063423;28;20599;-80
2021/05/19 02:59:09;;;;;;;9.63;8.70;;;9.90;99.90;;;;;;5067881;28;20201;-80
2021/05/19 03:01:36;;;;;;;9.02;8.23;;;9.80;99.90;;;;;;5068415;28;20193;-80
2021/05/19 03:04:04;;;;;;;9.90;8.88;;;9.80;99.90;;;;;;5070522;28;20298;-80
2021/05/19 03:06:31;;;;;;;8.73;8.02;;;9.70;99.90;;;;;;5061076;28;20203;-80
2021/05/19 03:08:58;;;;;;;9.90;9.00;;;9.70;99.90;;;;;;5074859;28;20190;-80
2021/05/19 03:11:25;;;;;;;9.25;8.40;;;9.70;99.90;;;;;;5071346;28;20196;-80
2021/05/19 03:13:52;;;;;;;9.82;8.93;;;9.70;99.90;;;;;;5077105;28;20198;-81
2021/05/19 03:16:19;;;;;;;11.00;8.32;;;9.70;99.90;;;;;;5065884;28;20225;-79
2021/05/19 03:18:46;;;;;;;8.88;8.07;;;9.70;99.90;;;;;;5076967;28;20207;-80
2021/05/19 03:21:13;;;;;;;10.10;8.82;;;9.60;99.90;;;;;;5081968;28;20304;-81
2021/05/19 03:23:40;;;;;;;9.73;8.77;;;9.60;99.90;;;;;;5070698;28;20198;-80
2021/05/19 03:26:07;;;;;;;9.60;8.60;;;9.60;99.90;;;;;;5054179;28;20199;-79
2021/05/19 03:28:34;;;;;;;10.70;9.70;;;9.60;99.90;;;;;;5085044;28;20183;-79
2021/05/19 03:31:02;;;;;;;10.27;9.30;;;9.50;99.90;;;;;;5074177;28;20202;-80
2021/05/19 03:33:29;;;;;;;10.80;9.70;;;9.60;99.90;;;;;;5071366;28;20218;-79
2021/05/19 03:35:56;;;;;;;9.35;8.55;;;9.60;99.90;;;;;;5069809;28;20234;-81
2021/05/19 03:38:23;;;;;;;10.98;9.88;;;9.70;99.90;;;;;;5071827;28;20191;-80
2021/05/19 03:40:50;;;;;;;9.55;8.60;;;9.60;99.90;;;;;;5085585;28;20194;-81
2021/05/19 03:43:17;;;;;;;11.48;10.10;;;9.60;99.90;;;;;;5090760;28;20212;-80
2021/05/19 03:45:44;;;;;;;9.10;8.13;;;9.60;99.90;;;;;;5069413;28;20221;-81
2021/05/19 03:48:11;;;;;;;10.73;9.70;;;9.70;99.90;;;;;;5078375;28;20211;-80
2021/05/19 03:50:39;;;;;;;10.70;9.68;;;9.70;99.90;;;;;;5103829;28;20194;-81
2021/05/19 03:53:07;;;;;;;11.27;9.38;;;9.80;99.90;;;;;;5078907;28;20219;-81
2021/05/19 03:55:35;;;;;;;10.63;9.63;;;9.80;99.90;;;;;;5054042;28;20964;-81
2021/05/19 03:58:03;;;;;;;10.32;9.32;;;9.90;99.90;;;;;;5074053;28;20207;-79
2021/05/19 04:00:31;;;;;;;9.45;8.50;;;9.90;99.90;;;;;;5089131;28;20201;-79
2021/05/19 04:02:58;;;;;;;11.30;10.18;;;10.00;99.90;;;;;;5057685;28;20203;-81
2021/05/19 04:05:26;;;;;;;11.32;10.32;;;10.00;99.90;;;;;;5073237;28;20223;-80
2021/05/19 04:07:56;;;;;;;11.57;10.38;;;10.10;99.90;;;;;;5073733;28;20210;-80
2021/05/19 04:10:23;;;;;;;11.50;10.35;;;10.10;99.90;;;;;;5074389;28;20199;-81
2021/05/19 04:12:51;;;;;;;11.25;10.05;;;10.10;99.90;;;;;;5070897;28;20219;-81
2021/05/19 04:15:20;;;;;;;11.85;10.75;;;10.00;99.90;;;;;;5090315;28;20271;-80
2021/05/19 04:17:52;;;;;;;13.80;12.30;;;10.10;99.90;;;;;;5088444;28;20205;-80
2021/05/19 04:20:20;;;;;;;12.15;11.05;;;10.30;99.90;;;;;;5077613;28;20202;-81
2021/05/19 04:22:49;;;;;;;13.13;11.52;;;10.30;99.90;;;;;;5085282;28;20193;-80
2021/05/19 04:25:18;;;;;;;14.13;10.75;;;10.30;99.90;;;;;;5086528;28;20219;-81
2021/05/19 04:27:53;;;;;;;12.70;11.60;;;10.30;99.90;;;;;;5084715;28;20191;-80
2021/05/19 04:30:32;;;;;;;11.25;10.15;;;10.40;99.90;;;;;;5060580;28;20544;-81
2021/05/19 04:33:19;;;;;;;13.27;12.05;;;10.20;99.90;;;;;;5075381;28;20226;-80
2021/05/19 04:35:57;;;;;;;11.77;10.52;;;10.30;99.90;;;;;;5068314;28;20233;-80
2021/05/19 04:38:39;;;;;;;12.65;11.40;;;10.40;99.90;;;;;;5085772;28;20198;-81
2021/05/19 04:41:06;;;;;;;12.38;11.02;;;10.60;99.90;;;;;;5077616;28;20194;-81
2021/05/19 04:43:34;;;;;;;13.68;12.18;;;10.50;99.90;;;;;;5084852;28;20212;-81
2021/05/19 04:46:01;;;;;;;12.07;10.90;;;10.30;99.90;;;;;;5080674;28;20614;-81
2021/05/19 04:48:31;;;;;;;14.43;10.90;;;10.30;99.90;;;;;;5085307;28;20558;-80
2021/05/19 04:50:58;;;;;;;12.90;11.70;;;10.50;99.90;;;;;;5078976;28;20416;-81
2021/05/19 04:53:25;;;;;;;12.27;11.13;;;10.40;99.90;;;;;;5087052;28;20233;-81
2021/05/19 04:56:01;;;;;;;11.95;10.85;;;10.40;99.90;;;;;;5085357;28;20229;-81
2021/05/19 04:58:37;;;;;;;14.57;13.15;;;10.30;99.90;;;;;;5073973;28;20190;-80
2021/05/19 05:01:04;;;;;;;14.25;12.90;;;10.50;99.90;;;;;;5075277;28;20219;-80
2021/05/19 05:03:31;;;;;;;17.85;14.65;;;10.50;99.90;;;;;;5086868;28;20194;-81
2021/05/19 05:06:01;;;;;;;15.82;14.00;;;10.70;99.90;;;;;;5070487;28;20214;-81
2021/05/19 05:08:28;;;;;;;15.02;13.60;;;10.70;99.90;;;;;;5069335;28;20233;-81
2021/05/19 05:10:55;;;;;;;16.90;15.10;;;10.60;99.90;;;;;;5087359;28;20225;-81
2021/05/19 05:13:25;;;;;;;15.55;13.90;;;10.50;99.90;;;;;;5076017;28;20226;-81
2021/05/19 05:15:53;;;;;;;19.27;17.38;;;10.50;99.90;;;;;;5085640;28;20233;-80
2021/05/19 05:18:22;;;;;;;19.15;16.80;;;10.60;99.90;;;;;;5085234;28;20258;-80
2021/05/19 05:20:56;;;;;;;16.63;15.02;;;10.70;99.90;;;;;;5075634;28;20198;-81
2021/05/19 05:23:35;;;;;;;16.88;15.25;;;10.80;99.90;;;;;;5073999;28;20207;-81
2021/05/19 05:26:03;;;;;;;15.40;13.90;;;10.90;99.90;;;;;;5072487;28;20229;-81
2021/05/19 05:28:37;;;;;;;15.25;13.85;;;10.90;99.90;;;;;;5079853;28;20207;-81
2021/05/19 05:31:09;;;;;;;18.73;16.65;;;11.10;99.90;;;;;;5073309;28;21034;-80
2021/05/19 05:33:39;;;;;;;20.05;18.05;;;11.30;99.90;;;;;;5086782;28;20214;-79
2021/05/19 05:36:06;;;;;;;20.25;18.13;;;11.20;99.90;;;;;;5079027;28;20267;-80
2021/05/19 05:38:41;;;;;;;22.42;20.05;;;11.30;99.90;;;;;;5078403;28;20205;-81
2021/05/19 05:41:09;;;;;;;20.90;18.73;;;11.40;99.90;;;;;;5087840;28;20209;-80
2021/05/19 05:43:42;;;;;;;27.27;24.55;;;11.30;99.90;;;;;;5066738;28;20218;-81
2021/05/19 05:46:11;;;;;;;26.05;22.48;;;11.40;99.90;;;;;;5088035;28;20201;-81
2021/05/19 05:48:37;;;;;;;27.38;24.55;;;11.40;99.90;;;;;;5073988;28;20198;-80
2021/05/19 05:51:04;;;;;;;25.13;22.42;;;11.00;99.90;;;;;;5085028;28;20194;-80
2021/05/19 05:53:31;;;;;;;29.73;24.75;;;11.10;99.90;;;;;;5079901;28;20669;-81
2021/05/19 05:55:57;;;;;;;26.00;23.30;;;11.00;99.90;;;;;;5090798;28;20233;-80
2021/05/19 05:58:24;;;;;;;28.08;25.05;;;11.00;99.90;;;;;;5085724;28;20197;-80
2021/05/19 06:00:51;;;;;;;28.25;24.92;;;11.00;99.90;;;;;;5081799;28;20229;-81
2021/05/19 06:03:19;;;;;;;27.15;24.17;;;11.00;99.90;;;;;;5073208;28;20187;-81
2021/05/19 06:05:46;;;;;;;29.52;26.33;;;11.00;99.90;;;;;;5092236;28;20238;-81
2021/05/19 06:08:12;;;;;;;29.42;22.92;;;11.10;99.90;;;;;;5073693;28;20203;-81
2021/05/19 06:10:39;;;;;;;27.52;24.52;;;11.30;99.90;;;;;;5085393;28;20211;-81
2021/05/19 06:13:06;;;;;;;26.75;23.67;;;11.50;99.90;;;;;;5093251;28;20217;-81
2021/05/19 06:15:33;;;;;;;27.23;23.98;;;11.70;99.90;;;;;;5086497;28;20302;-80
2021/05/19 06:18:05;;;;;;;28.70;23.98;;;11.80;99.90;;;;;;5076208;28;20226;-81
2021/05/19 06:20:33;;;;;;;24.35;21.83;;;11.60;99.90;;;;;;5075731;28;20194;-81
2021/05/19 06:23:00;;;;;;;26.15;22.27;;;11.40;99.90;;;;;;5083740;28;20261;-81
2021/05/19 06:25:26;;;;;;;20.35;18.27;;;11.60;99.90;;;;;;5083828;28;20229;-80
2021/05/19 06:27:54;;;;;;;23.38;19.83;;;11.70;99.90;;;;;;5087232;28;20590;-81
2021/05/19 06:30:39;;;;;;;21.90;19.70;;;12.00;99.90;;;;;;5085190;28;20617;-81
2021/05/19 06:36:11;;;;;;;19.83;17.77;;;12.20;99.90;;;;;;4989653;28;20201;-38
2021/05/19 06:38:38;;;;;;;20.23;17.67;;;12.30;99.90;;;;;;4991796;28;20201;-38
2021/05/19 06:41:05;;;;;;;18.30;16.35;;;12.30;99.90;;;;;;4992405;28;20303;-38
2021/05/19 06:43:31;;;;;;;17.30;15.70;;;12.40;99.90;;;;;;4992311;28;20655;-39
2021/05/19 06:48:31;;;;;;;16.90;15.05;;;12.70;99.90;;;;;;5017548;28;20216;-40
2021/05/19 06:50:58;;;;;;;17.85;16.10;;;12.70;99.90;;;;;;5001722;28;20927;-40
2021/05/19 06:53:25;;;;;;;15.65;14.15;;;13.00;99.90;;;;;;5009570;28;20315;-40
2021/05/19 06:55:52;;;;;;;14.38;12.70;;;13.00;99.90;;;;;;5011847;28;20201;-41
2021/05/19 06:58:19;;;;;;;14.73;13.27;;;13.10;99.90;;;;;;4978646;28;20556;-40
2021/05/19 07:00:46;;;;;;;15.20;12.75;;;12.80;99.90;;;;;;4973782;28;20228;-38
2021/05/19 07:03:13;;;;;;;15.98;14.38;;;13.00;99.90;;;;;;4982582;28;20751;-40
2021/05/19 07:05:40;;;;;;;15.60;14.10;;;12.90;99.90;;;;;;4984603;28;20754;-38
2021/05/19 07:08:07;;;;;;;16.52;11.68;;;13.10;99.90;;;;;;4989439;28;20746;-39
2021/05/19 07:10:44;;;;;;;13.73;12.25;;;13.10;99.90;;;;;;4976290;28;20201;-39
2021/05/19 07:13:11;;;;;;;13.85;12.30;;;13.40;99.90;;;;;;4976378;28;20301;-39
2021/05/19 07:15:39;;;;;;;13.80;12.50;;;13.20;99.90;;;;;;4978798;28;20252;-39
2021/05/19 07:18:07;;;;;;;10.77;9.68;;;13.20;99.90;;;;;;4985243;28;20308;-40
2021/05/19 07:20:34;;;;;;;10.38;9.40;;;13.30;99.90;;;;;;4981637;28;20213;-41
2021/05/19 07:23:01;;;;;;;9.63;8.70;;;13.30;99.90;;;;;;4992137;28;20189;-39
2021/05/19 07:25:27;;;;;;;12.95;9.32;;;13.40;99.90;;;;;;4989387;28;20200;-40
2021/05/19 07:27:55;;;;;;;11.60;9.40;;;13.30;99.90;;;;;;5017641;28;20233;-42
2021/05/19 07:30:22;;;;;;;11.88;10.50;;;13.10;99.90;;;;;;4997771;28;20655;-42
2021/05/19 07:32:49;;;;;;;9.75;8.77;;;13.50;99.90;;;;;;4989905;28;20228;-40
2021/05/19 07:35:16;;;;;;;9.32;8.05;;;13.80;99.90;;;;;;4975409;28;20197;-39
2021/05/19 07:37:43;;;;;;;8.05;7.05;;;14.10;99.90;;;;;;4984229;28;20220;-42
2021/05/19 07:40:11;;;;;;;8.45;7.72;;;13.90;99.90;;;;;;4986753;28;20197;-40
2021/05/19 07:42:38;;;;;;;7.75;6.85;;;13.70;99.90;;;;;;4983361;28;20272;-38
2021/05/19 07:45:07;;;;;;;6.18;5.65;;;13.60;99.90;;;;;;4985236;28;20205;-40
2021/05/19 07:47:34;;;;;;;6.72;6.13;;;13.50;99.90;;;;;;4988368;28;20694;-39
2021/05/19 07:50:01;;;;;;;7.35;6.45;;;13.70;99.90;;;;;;4975308;28;20553;-41
2021/05/19 07:52:28;;;;;;;6.63;5.88;;;14.20;99.90;;;;;;4986349;28;20211;-39
2021/05/19 07:54:56;;;;;;;7.00;6.30;;;14.20;99.90;;;;;;4976409;28;20584;-39
2021/05/19 07:57:26;;;;;;;6.43;5.85;;;14.00;99.90;;;;;;4981011;28;20224;-39
2021/05/19 08:00:06;;;;;;;6.88;6.28;;;13.60;99.90;;;;;;4987242;28;20194;-39
2021/05/19 08:02:41;;;;;;;6.32;5.80;;;14.00;99.90;;;;;;4988695;28;20275;-39
2021/05/19 08:05:10;;;;;;;5.80;5.30;;;14.60;99.90;;;;;;5004394;28;20220;-42
2021/05/19 08:07:37;;;;;;;8.55;5.93;;;14.80;99.90;;;;;;5005790;28;20228;-41
2021/05/19 08:10:04;;;;;;;6.32;5.72;;;15.10;99.90;;;;;;4987024;28;20198;-41
2021/05/19 08:12:31;;;;;;;7.40;5.68;;;15.40;99.90;;;;;;4971701;28;20222;-41
2021/05/19 08:14:58;;;;;;;5.80;5.40;;;15.50;99.90;;;;;;4985440;28;20626;-39
2021/05/19 08:17:25;;;;;;;5.60;4.30;;;15.40;99.90;;;;;;4979607;28;20237;-42
2021/05/19 08:19:53;;;;;;;5.80;4.90;;;15.10;99.90;;;;;;4986204;28;20198;-40
2021/05/19 08:22:20;;;;;;;5.18;4.68;;;14.90;99.90;;;;;;4980978;28;20198;-40
2021/05/19 08:24:46;;;;;;;8.95;5.80;;;15.30;99.90;;;;;;5000591;28;20612;-38
2021/05/19 08:27:13;;;;;;;4.78;4.40;;;15.10;99.90;;;;;;4988916;28;20220;-39
2021/05/19 08:29:40;;;;;;;6.78;5.57;;;15.00;99.90;;;;;;4974543;28;20221;-38
2021/05/19 08:32:07;;;;;;;5.45;4.95;;;14.60;99.90;;;;;;4987372;28;20735;-38
2021/05/19 08:34:34;;;;;;;4.55;4.13;;;14.20;99.90;;;;;;4981438;28;20198;-38
2021/05/19 08:37:02;;;;;;;4.22;3.83;;;14.40;99.90;;;;;;4989825;28;20224;-38
2021/05/19 08:39:28;;;;;;;3.05;2.85;;;14.90;99.90;;;;;;5018960;28;20193;-41
2021/05/19 08:41:55;;;;;;;4.10;3.20;;;15.10;99.90;;;;;;4979185;28;20240;-39
2021/05/19 08:44:24;;;;;;;3.47;2.80;;;14.90;99.90;;;;;;4985055;28;20200;-41
2021/05/19 08:46:55;;;;;;;3.72;2.00;;;14.70;99.90;;;;;;4983554;28;20486;-42
2021/05/19 08:49:44;;;;;;;2.45;1.80;;;14.50;99.90;;;;;;4978245;23;20691;31
2021/05/19 08:52:12;;;;;;;2.15;1.98;;;14.20;99.90;;;;;;5001684;28;20297;-79
2021/05/19 08:54:41;;;;;;;1.90;1.73;;;14.20;99.90;;;;;;5006963;28;20221;-81
2021/05/19 08:57:13;;;;;;;2.67;2.33;;;14.40;99.90;;;;;;4986828;28;20201;-80
2021/05/19 08:59:39;;;;;;;2.83;2.45;;;14.30;99.90;;;;;;5001925;28;20210;-77
2021/05/19 09:05:18;;;;;;;4.18;3.05;;;14.20;99.90;;;;;;4944253;28;20221;-81
2021/05/19 09:08:07;;;;;;;3.53;2.30;;;13.90;99.90;;;;;;5019823;28;20220;-82
2021/05/19 09:11:51;;;;;;;2.00;1.75;;;14.00;99.90;;;;;;5022281;28;20256;-79
2021/05/19 09:14:18;;;;;;;2.15;1.30;;;14.60;99.90;;;;;;4985089;23;20326;-39
2021/05/19 09:16:44;;;;;;;1.30;1.25;;;15.30;99.90;;;;;;5046722;28;20195;-41
2021/05/19 09:19:11;;;;;;;5.60;1.80;;;15.50;99.90;;;;;;5034762;28;20203;-39
2021/05/19 09:21:39;;;;;;;1.40;1.30;;;15.70;99.90;;;;;;5038459;28;20215;-40
2021/05/19 09:24:10;;;;;;;3.00;1.20;;;16.20;99.90;;;;;;5038645;28;20655;-38
2021/05/19 09:26:54;;;;;;;1.33;1.20;;;16.10;99.90;;;;;;5031446;28;20207;-41
2021/05/19 09:29:22;;;;;;;2.63;1.15;;;16.00;99.90;;;;;;5062847;22;20227;-37
2021/05/19 09:31:54;;;;;;;0.90;0.90;;;16.20;99.90;;;;;;5053982;28;20199;-37
2021/05/19 09:34:25;;;;;;;3.20;1.20;;;16.10;99.90;;;;;;5056054;28;20200;-36
2021/05/19 09:36:51;;;;;;;0.80;0.75;;;15.80;99.90;;;;;;5052771;28;20203;-37
2021/05/19 09:39:19;;;;;;;1.65;0.88;;;15.70;99.90;;;;;;5054016;28;20218;-38
2021/05/19 09:41:45;;;;;;;1.55;1.08;;;15.70;99.90;;;;;;5055577;28;20211;-38
2021/05/19 09:44:13;;;;;;;2.50;1.20;;;15.60;99.90;;;;;;5057068;28;20194;-37
2021/05/19 09:46:47;;;;;;;1.23;1.13;;;15.50;99.90;;;;;;5064211;28;20264;-37
2021/05/19 09:49:16;;;;;;;2.08;1.15;;;15.30;99.90;;;;;;5050867;28;20261;-37
2021/05/19 09:51:45;;;;;;;2.05;1.10;;;15.60;99.90;;;;;;5063882;28;20198;-38
2021/05/19 09:54:26;;;;;;;1.13;1.05;;;15.80;99.90;;;;;;5057390;28;20226;-37
2021/05/19 09:56:57;;;;;;;0.95;0.88;;;16.20;99.90;;;;;;5061065;28;20228;-37
2021/05/19 09:59:24;;;;;;;1.38;0.63;;;16.40;99.90;;;;;;5062917;28;20219;-40
2021/05/19 10:01:52;;;;;;;2.08;1.25;;;16.70;99.90;;;;;;5069974;28;20231;-38
2021/05/19 10:04:21;;;;;;;2.88;1.25;;;17.10;99.90;;;;;;5065813;28;20599;-39
2021/05/19 10:06:49;;;;;;;1.50;1.33;;;17.10;99.90;;;;;;5055765;28;20273;-38
2021/05/19 10:09:16;;;;;;;4.45;1.73;;;16.90;99.90;;;;;;5069520;28;20280;-38
2021/05/19 10:11:44;;;;;;;1.95;1.42;;;17.30;99.90;;;;;;5068871;28;20187;-38
2021/05/19 10:14:13;;;;;;;1.70;1.33;;;17.30;99.90;;;;;;5060642;28;20238;-38
2021/05/19 10:16:43;;;;;;;1.85;1.38;;;17.30;99.90;;;;;;5050098;28;20198;-38
2021/05/19 10:19:13;;;;;;;1.77;1.63;;;17.00;99.90;;;;;;5049656;28;20716;-40
2021/05/19 10:21:41;;;;;;;2.45;1.67;;;17.10;99.90;;;;;;5050179;28;20191;-38
2021/05/19 10:24:10;;;;;;;0.70;0.70;;;16.90;99.90;;;;;;5049259;28;20221;-37
2021/05/19 10:26:59;;;;;;;2.50;1.88;;;16.70;99.90;;;;;;5055062;28;20192;-38
2021/05/19 10:29:55;;;;;;;2.55;1.85;;;16.40;99.90;;;;;;5067873;28;20233;-37
2021/05/19 10:32:36;;;;;;;3.25;2.75;;;16.40;99.90;;;;;;5030783;28;20314;-37
2021/05/19 10:35:06;;;;;;;3.20;2.33;;;15.80;99.90;;;;;;5051675;28;20657;-38
2021/05/19 10:37:39;;;;;;;2.80;1.52;;;15.50;99.90;;;;;;5059420;28;20199;-38
2021/05/19 10:40:29;;;;;;;3.92;2.50;;;15.70;99.90;;;;;;5060900;28;21005;-37
2021/05/19 10:42:59;;;;;;;4.18;3.15;;;15.80;99.90;;;;;;5058540;28;20199;-37
2021/05/19 10:45:26;;;;;;;3.67;3.38;;;15.70;99.90;;;;;;5053760;28;20203;-37
2021/05/19 10:47:53;;;;;;;4.05;3.55;;;15.60;99.90;;;;;;5053142;28;20264;-37
2021/05/19 10:50:29;;;;;;;2.20;2.00;;;15.50;99.90;;;;;;5052861;28;20229;-39
2021/05/19 10:58:51;;;;;;;5.75;1.58;;;15.80;99.90;;;;;;5054245;28;20488;-37
2021/05/19 11:01:54;;;;;;;2.28;1.55;;;16.10;99.90;;;;;;5059086;28;20195;-38
2021/05/19 11:04:22;;;;;;;6.32;2.13;;;16.70;99.90;;;;;;5056530;28;20203;-38
2021/05/19 11:07:04;;;;;;;3.17;2.88;;;17.10;99.90;;;;;;5052148;28;20222;-37
2021/05/19 11:09:32;;;;;;;4.32;3.03;;;17.10;99.90;;;;;;5048724;28;20654;-38
2021/05/19 11:12:38;;;;;;;3.35;2.65;;;16.90;99.90;;;;;;5050075;28;20688;-37
2021/05/19 11:15:46;;;;;;;3.17;2.90;;;17.00;99.90;;;;;;5054829;28;20203;-39
2021/05/19 11:18:20;;;;;;;4.13;3.42;;;17.10;99.90;;;;;;5065500;28;20230;-37
2021/05/19 11:20:47;;;;;;;3.95;2.97;;;17.30;99.90;;;;;;5053632;28;20258;-37
2021/05/19 11:23:15;;;;;;;8.68;4.43;;;17.50;99.90;;;;;;5052804;28;20382;-40
2021/05/19 11:25:44;;;;;;;5.47;3.92;;;17.30;99.90;;;;;;5052339;28;20207;-38
2021/05/19 11:28:11;;;;;;;4.55;3.92;;;17.70;99.90;;;;;;5035168;28;20223;-40
2021/05/19 11:30:37;;;;;;;4.88;2.83;;;17.50;99.90;;;;;;5053036;28;20203;-37
2021/05/19 11:33:06;;;;;;;2.95;2.58;;;17.90;99.90;;;;;;5052179;28;20226;-40
2021/05/19 11:35:34;;;;;;;6.75;3.97;;;18.40;99.90;;;;;;5052290;28;20195;-38
2021/05/19 11:38:02;;;;;;;6.57;4.25;;;18.10;99.90;;;;;;5054746;28;20585;-38
2021/05/19 11:40:41;;;;;;;3.17;2.88;;;18.40;99.90;;;;;;5051721;28;20734;-39
2021/05/19 11:43:09;;;;;;;3.03;2.65;;;18.10;99.90;;;;;;5063551;28;20197;-37
2021/05/19 11:45:35;;;;;;;4.35;3.95;;;17.90;99.90;;;;;;5063247;28;20550;-39
2021/05/19 11:48:03;;;;;;;4.18;3.63;;;18.00;99.90;;;;;;5064474;28;20235;-41
2021/05/19 11:50:32;;;;;;;5.00;3.88;;;18.10;99.90;;;;;;5067840;28;20261;-37
2021/05/19 11:53:02;;;;;;;3.80;3.22;;;18.00;99.90;;;;;;5059869;28;20219;-37
2021/05/19 11:55:37;;;;;;;7.40;4.30;;;17.40;99.90;;;;;;5054466;28;20195;-36
2021/05/19 11:58:06;;;;;;;4.90;3.83;;;17.20;99.90;;;;;;5054442;28;20292;-36
2021/05/19 12:00:36;;;;;;;5.63;3.65;;;17.00;99.90;;;;;;5059733;28;20828;-39
2021/05/19 12:03:26;;;;;;;4.88;4.32;;;17.20;99.90;;;;;;5057866;28;20188;-37
2021/05/19 12:05:54;;;;;;;6.53;4.50;;;17.20;99.90;;;;;;5054932;28;20676;-37
2021/05/19 12:08:22;;;;;;;4.10;3.72;;;16.70;99.90;;;;;;5056283;28;20221;-37
2021/05/19 12:11:03;;;;;;;5.35;4.35;;;16.60;99.90;;;;;;5064156;28;20227;-38
2021/05/19 12:13:31;;;;;;;5.78;3.70;;;16.60;99.90;;;;;;5051274;28;20540;-37
2021/05/19 12:15:58;;;;;;;5.47;3.58;;;16.90;99.90;;;;;;5051719;28;20229;-37
2021/05/19 12:18:25;;;;;;;4.28;3.88;;;16.90;99.90;;;;;;5059925;28;20272;-37
2021/05/19 12:20:51;;;;;;;4.72;4.00;;;17.00;99.90;;;;;;5054759;28;20195;-36
2021/05/19 12:23:18;;;;;;;3.60;3.13;;;17.00;99.90;;;;;;5051587;28;20207;-38
2021/05/19 12:25:45;;;;;;;4.22;3.13;;;17.70;99.90;;;;;;5051898;28;20218;-37
2021/05/19 12:28:20;;;;;;;4.25;3.85;;;17.40;99.90;;;;;;5057059;28;20297;-37
2021/05/19 12:30:49;;;;;;;4.25;3.28;;;17.50;99.90;;;;;;5033953;28;20241;-37
2021/05/19 12:33:20;;;;;;;4.68;3.55;;;17.40;99.90;;;;;;5061027;28;20217;-37
2021/05/19 12:35:47;;;;;;;4.13;3.72;;;16.70;99.90;;;;;;5059706;28;20199;-38
2021/05/19 12:38:16;;;;;;;3.53;3.22;;;15.90;99.90;;;;;;5050073;28;20220;-38
2021/05/19 12:40:47;;;;;;;5.90;3.53;;;15.80;99.90;;;;;;5051588;28;20210;-37
2021/05/19 12:43:22;;;;;;;3.97;3.63;;;15.60;99.90;;;;;;5051539;28;20194;-37
2021/05/19 12:45:51;;;;;;;6.07;3.25;;;16.00;99.90;;;;;;5054959;28;20198;-37
2021/05/19 12:48:20;;;;;;;4.05;3.63;;;15.60;99.90;;;;;;5049411;28;20222;-37
2021/05/19 12:50:49;;;;;;;3.55;2.70;;;15.70;99.90;;;;;;5050444;28;20759;-37
2021/05/19 12:53:34;;;;;;;3.25;2.92;;;15.70;99.90;;;;;;5055573;28;20215;-37
2021/05/19 12:56:07;;;;;;;4.07;2.90;;;16.30;99.90;;;;;;5031313;28;20231;-37
2021/05/19 12:58:50;;;;;;;2.70;2.50;;;16.00;99.90;;;;;;5053838;28;20234;-37
2021/05/19 13:01:17;;;;;;;2.67;2.10;;;15.90;99.90;;;;;;5052847;28;20241;-38
2021/05/19 13:03:44;;;;;;;2.95;2.75;;;16.20;99.90;;;;;;5052266;28;20192;-37
2021/05/19 13:06:11;;;;;;;3.72;2.50;;;16.80;99.90;;;;;;5050689;28;20191;-39
2021/05/19 13:08:38;;;;;;;2.63;2.42;;;16.80;99.90;;;;;;5058698;28;20214;-38
2021/05/19 13:11:16;;;;;;;3.88;2.53;;;17.10;99.90;;;;;;5046600;28;20390;-38
2021/05/19 13:13:45;;;;;;;2.65;2.45;;;17.60;99.90;;;;;;5052659;28;20685;-39
2021/05/19 13:16:18;;;;;;;1.80;1.40;;;17.90;99.90;;;;;;5050475;28;20684;-38